sensor_id;sensor_type;location;lat;lon;timestamp;temperature;humidity
21891;DHT22;11110;52.386;16.940;2023-09-19T00:02:22;32.30;54.30
21891;DHT22;11110;52.386;16.940;2023-09-19T00:04:50;32.30;54.50
21891;DHT22;11110;52.386;16.940;2023-09-19T00:07:19;32.30;54.60
21891;DHT22;11110;52.386;16.940;2023-09-19T00:09:48;32.20;54.80
21891;DHT22;11110;52.386;16.940;2023-09-19T00:12:19;32.20;54.80
21891;DHT22;11110;52.386;16.940;2023-09-19T00:14:47;32.30;54.90
21891;DHT22;11110;52.386;16.940;2023-09-19T00:17:15;32.20;54.80
21891;DHT22;11110;52.386;16.940;2023-09-19T00:19:44;32.20;54.80
21891;DHT22;11110;52.386;16.940;2023-09-19T00:22:13;32.20;54.80
21891;DHT22;11110;52.386;16.940;2023-09-19T00:24:43;32.20;54.60
21891;DHT22;11110;52.386;16.940;2023-09-19T00:27:11;32.30;55.80
21891;DHT22;11110;52.386;16.940;2023-09-19T00:29:41;32.20;54.80
21891;DHT22;11110;52.386;16.940;2023-09-19T00:32:10;32.30;55.00
21891;DHT22;11110;52.386;16.940;2023-09-19T00:34:38;32.30;55.10
21891;DHT22;11110;52.386;16.940;2023-09-19T00:37:07;32.20;55.20
21891;DHT22;11110;52.386;16.940;2023-09-19T00:39:38;32.10;55.10
21891;DHT22;11110;52.386;16.940;2023-09-19T00:42:08;32.10;55.10
21891;DHT22;11110;52.386;16.940;2023-09-19T00:44:37;32.10;55.20
21891;DHT22;11110;52.386;16.940;2023-09-19T00:47:08;32.10;55.30
21891;DHT22;11110;52.386;16.940;2023-09-19T00:49:44;32.10;55.30
21891;DHT22;11110;52.386;16.940;2023-09-19T00:52:20;32.10;55.20
21891;DHT22;11110;52.386;16.940;2023-09-19T00:54:51;32.10;55.20
21891;DHT22;11110;52.386;16.940;2023-09-19T00:57:20;32.10;55.10
21891;DHT22;11110;52.386;16.940;2023-09-19T00:59:50;32.10;55.30
21891;DHT22;11110;52.386;16.940;2023-09-19T01:02:23;32.20;55.10
21891;DHT22;11110;52.386;16.940;2023-09-19T01:04:51;32.20;55.10
21891;DHT22;11110;52.386;16.940;2023-09-19T01:07:21;32.20;55.20
21891;DHT22;11110;52.386;16.940;2023-09-19T01:09:50;32.20;55.00
21891;DHT22;11110;52.386;16.940;2023-09-19T01:12:24;32.20;55.10
21891;DHT22;11110;52.386;16.940;2023-09-19T01:14:57;32.20;55.10
21891;DHT22;11110;52.386;16.940;2023-09-19T01:17:38;32.30;55.40
21891;DHT22;11110;52.386;16.940;2023-09-19T01:20:17;32.30;55.20
21891;DHT22;11110;52.386;16.940;2023-09-19T01:22:56;32.30;55.40
21891;DHT22;11110;52.386;16.940;2023-09-19T01:26:03;32.20;55.20
21891;DHT22;11110;52.386;16.940;2023-09-19T01:28:39;32.20;55.20
21891;DHT22;11110;52.386;16.940;2023-09-19T01:31:12;32.10;56.10
21891;DHT22;11110;52.386;16.940;2023-09-19T01:33:59;32.20;55.60
21891;DHT22;11110;52.386;16.940;2023-09-19T01:36:29;32.20;55.40
21891;DHT22;11110;52.386;16.940;2023-09-19T01:38:59;32.10;55.50
21891;DHT22;11110;52.386;16.940;2023-09-19T01:41:43;32.10;55.60
21891;DHT22;11110;52.386;16.940;2023-09-19T01:44:19;32.20;55.60
21891;DHT22;11110;52.386;16.940;2023-09-19T01:46:52;32.10;55.60
21891;DHT22;11110;52.386;16.940;2023-09-19T01:49:33;32.10;55.50
21891;DHT22;11110;52.386;16.940;2023-09-19T01:52:09;32.10;55.50
21891;DHT22;11110;52.386;16.940;2023-09-19T01:54:46;32.10;55.50
21891;DHT22;11110;52.386;16.940;2023-09-19T01:57:22;32.10;55.60
21891;DHT22;11110;52.386;16.940;2023-09-19T02:00:01;32.20;55.50
21891;DHT22;11110;52.386;16.940;2023-09-19T02:02:43;32.10;55.60
21891;DHT22;11110;52.386;16.940;2023-09-19T02:05:12;32.10;55.60
21891;DHT22;11110;52.386;16.940;2023-09-19T02:07:41;32.10;55.70
21891;DHT22;11110;52.386;16.940;2023-09-19T02:10:10;32.10;55.70
21891;DHT22;11110;52.386;16.940;2023-09-19T02:12:39;32.10;55.60
21891;DHT22;11110;52.386;16.940;2023-09-19T02:15:08;32.10;55.60
21891;DHT22;11110;52.386;16.940;2023-09-19T02:17:37;32.10;55.50
21891;DHT22;11110;52.386;16.940;2023-09-19T02:20:08;32.10;55.50
21891;DHT22;11110;52.386;16.940;2023-09-19T02:22:37;32.10;55.60
21891;DHT22;11110;52.386;16.940;2023-09-19T02:25:07;32.10;55.60
21891;DHT22;11110;52.386;16.940;2023-09-19T02:27:36;32.10;55.70
21891;DHT22;11110;52.386;16.940;2023-09-19T02:30:05;32.10;55.60
21891;DHT22;11110;52.386;16.940;2023-09-19T02:32:34;32.10;55.60
21891;DHT22;11110;52.386;16.940;2023-09-19T02:35:08;32.10;55.60
21891;DHT22;11110;52.386;16.940;2023-09-19T02:37:38;32.20;55.60
21891;DHT22;11110;52.386;16.940;2023-09-19T02:40:08;32.10;55.60
21891;DHT22;11110;52.386;16.940;2023-09-19T02:42:46;32.10;55.60
21891;DHT22;11110;52.386;16.940;2023-09-19T02:45:16;32.10;56.10
21891;DHT22;11110;52.386;16.940;2023-09-19T02:47:46;32.10;55.50
21891;DHT22;11110;52.386;16.940;2023-09-19T02:50:17;32.10;55.50
21891;DHT22;11110;52.386;16.940;2023-09-19T02:52:46;32.10;55.60
21891;DHT22;11110;52.386;16.940;2023-09-19T02:55:17;32.10;55.60
21891;DHT22;11110;52.386;16.940;2023-09-19T02:57:47;32.00;55.60
21891;DHT22;11110;52.386;16.940;2023-09-19T03:00:17;32.00;55.50
21891;DHT22;11110;52.386;16.940;2023-09-19T03:02:49;32.00;55.60
21891;DHT22;11110;52.386;16.940;2023-09-19T03:05:20;32.00;55.70
21891;DHT22;11110;52.386;16.940;2023-09-19T03:07:50;32.00;55.70
21891;DHT22;11110;52.386;16.940;2023-09-19T03:10:21;31.90;55.50
21891;DHT22;11110;52.386;16.940;2023-09-19T03:12:50;32.00;56.20
21891;DHT22;11110;52.386;16.940;2023-09-19T03:15:19;31.90;55.50
21891;DHT22;11110;52.386;16.940;2023-09-19T03:17:51;31.90;55.40
21891;DHT22;11110;52.386;16.940;2023-09-19T03:20:24;31.90;55.50
21891;DHT22;11110;52.386;16.940;2023-09-19T03:22:52;31.90;55.60
21891;DHT22;11110;52.386;16.940;2023-09-19T03:25:22;31.80;55.50
21891;DHT22;11110;52.386;16.940;2023-09-19T03:27:52;31.80;55.60
21891;DHT22;11110;52.386;16.940;2023-09-19T03:30:23;31.80;55.50
21891;DHT22;11110;52.386;16.940;2023-09-19T03:32:51;31.80;55.60
21891;DHT22;11110;52.386;16.940;2023-09-19T03:35:20;31.80;55.50
21891;DHT22;11110;52.386;16.940;2023-09-19T03:37:51;31.80;55.60
21891;DHT22;11110;52.386;16.940;2023-09-19T03:40:20;31.80;55.60
21891;DHT22;11110;52.386;16.940;2023-09-19T03:42:50;31.70;55.50
21891;DHT22;11110;52.386;16.940;2023-09-19T03:45:19;31.70;55.50
21891;DHT22;11110;52.386;16.940;2023-09-19T03:47:50;31.70;55.50
21891;DHT22;11110;52.386;16.940;2023-09-19T03:50:22;31.70;55.60
21891;DHT22;11110;52.386;16.940;2023-09-19T03:52:56;31.60;55.50
21891;DHT22;11110;52.386;16.940;2023-09-19T03:55:25;31.70;55.50
21891;DHT22;11110;52.386;16.940;2023-09-19T03:57:54;31.60;55.50
21891;DHT22;11110;52.386;16.940;2023-09-19T04:00:23;31.60;55.60
21891;DHT22;11110;52.386;16.940;2023-09-19T04:02:53;31.60;55.60
21891;DHT22;11110;52.386;16.940;2023-09-19T04:05:24;31.60;55.60
21891;DHT22;11110;52.386;16.940;2023-09-19T04:07:54;31.60;55.60
21891;DHT22;11110;52.386;16.940;2023-09-19T04:10:22;31.60;55.70
21891;DHT22;11110;52.386;16.940;2023-09-19T04:12:51;31.50;55.60
21891;DHT22;11110;52.386;16.940;2023-09-19T04:15:20;31.50;55.60
21891;DHT22;11110;52.386;16.940;2023-09-19T04:17:52;31.50;55.70
21891;DHT22;11110;52.386;16.940;2023-09-19T04:20:21;31.40;55.60
21891;DHT22;11110;52.386;16.940;2023-09-19T04:22:50;31.40;55.70
21891;DHT22;11110;52.386;16.940;2023-09-19T04:25:21;31.40;55.70
21891;DHT22;11110;52.386;16.940;2023-09-19T04:27:50;31.40;55.70
21891;DHT22;11110;52.386;16.940;2023-09-19T04:30:19;31.40;55.60
21891;DHT22;11110;52.386;16.940;2023-09-19T04:32:48;31.40;55.70
21891;DHT22;11110;52.386;16.940;2023-09-19T04:35:19;31.40;55.70
21891;DHT22;11110;52.386;16.940;2023-09-19T04:37:48;31.40;55.70
21891;DHT22;11110;52.386;16.940;2023-09-19T04:40:16;31.30;55.70
21891;DHT22;11110;52.386;16.940;2023-09-19T04:42:54;31.30;55.70
21891;DHT22;11110;52.386;16.940;2023-09-19T04:45:24;31.40;55.60
21891;DHT22;11110;52.386;16.940;2023-09-19T04:47:54;31.30;55.70
21891;DHT22;11110;52.386;16.940;2023-09-19T04:50:23;31.20;55.70
21891;DHT22;11110;52.386;16.940;2023-09-19T04:52:55;31.20;55.90
21891;DHT22;11110;52.386;16.940;2023-09-19T04:55:23;31.20;55.80
21891;DHT22;11110;52.386;16.940;2023-09-19T04:57:56;31.20;56.00
21891;DHT22;11110;52.386;16.940;2023-09-19T05:00:24;31.10;55.90
21891;DHT22;11110;52.386;16.940;2023-09-19T05:02:56;31.10;56.00
21891;DHT22;11110;52.386;16.940;2023-09-19T05:05:25;31.10;56.00
21891;DHT22;11110;52.386;16.940;2023-09-19T05:07:54;31.10;56.00
21891;DHT22;11110;52.386;16.940;2023-09-19T05:10:23;31.00;56.00
21891;DHT22;11110;52.386;16.940;2023-09-19T05:12:54;31.00;56.10
21891;DHT22;11110;52.386;16.940;2023-09-19T05:15:23;31.00;56.10
21891;DHT22;11110;52.386;16.940;2023-09-19T05:17:52;30.90;56.20
21891;DHT22;11110;52.386;16.940;2023-09-19T05:20:25;30.90;56.20
21891;DHT22;11110;52.386;16.940;2023-09-19T05:22:58;30.80;56.20
21891;DHT22;11110;52.386;16.940;2023-09-19T05:25:29;30.80;56.40
21891;DHT22;11110;52.386;16.940;2023-09-19T05:27:59;30.60;56.20
21891;DHT22;11110;52.386;16.940;2023-09-19T05:30:32;30.80;56.40
21891;DHT22;11110;52.386;16.940;2023-09-19T05:33:00;30.70;56.40
21891;DHT22;11110;52.386;16.940;2023-09-19T05:35:29;30.70;56.40
21891;DHT22;11110;52.386;16.940;2023-09-19T05:37:57;30.70;56.60
21891;DHT22;11110;52.386;16.940;2023-09-19T05:40:27;30.60;56.50
21891;DHT22;11110;52.386;16.940;2023-09-19T05:42:55;30.70;56.50
21891;DHT22;11110;52.386;16.940;2023-09-19T05:45:26;30.60;56.40
21891;DHT22;11110;52.386;16.940;2023-09-19T05:47:54;30.70;56.60
21891;DHT22;11110;52.386;16.940;2023-09-19T05:50:28;30.60;56.60
21891;DHT22;11110;52.386;16.940;2023-09-19T05:52:57;30.60;56.70
21891;DHT22;11110;52.386;16.940;2023-09-19T05:55:26;30.60;56.70
21891;DHT22;11110;52.386;16.940;2023-09-19T05:57:55;30.50;56.70
21891;DHT22;11110;52.386;16.940;2023-09-19T06:00:26;30.60;56.80
21891;DHT22;11110;52.386;16.940;2023-09-19T06:02:57;30.60;56.80
21891;DHT22;11110;52.386;16.940;2023-09-19T06:05:27;30.60;56.90
21891;DHT22;11110;52.386;16.940;2023-09-19T06:07:57;30.50;56.90
21891;DHT22;11110;52.386;16.940;2023-09-19T06:10:28;30.50;56.80
21891;DHT22;11110;52.386;16.940;2023-09-19T06:12:58;30.50;57.50
21891;DHT22;11110;52.386;16.940;2023-09-19T06:15:28;30.50;56.90
21891;DHT22;11110;52.386;16.940;2023-09-19T06:17:59;30.50;56.80
21891;DHT22;11110;52.386;16.940;2023-09-19T06:20:30;30.60;56.80
21891;DHT22;11110;52.386;16.940;2023-09-19T06:23:00;30.40;56.70
21891;DHT22;11110;52.386;16.940;2023-09-19T06:25:31;30.60;56.90
21891;DHT22;11110;52.386;16.940;2023-09-19T06:27:59;30.60;56.90
21891;DHT22;11110;52.386;16.940;2023-09-19T06:30:34;30.60;56.90
21891;DHT22;11110;52.386;16.940;2023-09-19T06:33:03;30.60;56.80
21891;DHT22;11110;52.386;16.940;2023-09-19T06:35:33;30.50;56.70
21891;DHT22;11110;52.386;16.940;2023-09-19T06:38:03;30.50;56.60
21891;DHT22;11110;52.386;16.940;2023-09-19T06:40:33;30.60;56.70
21891;DHT22;11110;52.386;16.940;2023-09-19T06:43:01;30.50;56.80
21891;DHT22;11110;52.386;16.940;2023-09-19T06:45:31;30.50;56.90
21891;DHT22;11110;52.386;16.940;2023-09-19T06:48:01;30.50;56.90
21891;DHT22;11110;52.386;16.940;2023-09-19T06:50:30;30.60;56.90
21891;DHT22;11110;52.386;16.940;2023-09-19T06:53:00;30.60;56.90
21891;DHT22;11110;52.386;16.940;2023-09-19T06:55:29;30.40;56.80
21891;DHT22;11110;52.386;16.940;2023-09-19T06:57:59;30.60;56.90
21891;DHT22;11110;52.386;16.940;2023-09-19T07:00:28;30.50;56.80
21891;DHT22;11110;52.386;16.940;2023-09-19T07:03:01;30.50;56.90
21891;DHT22;11110;52.386;16.940;2023-09-19T07:05:33;30.50;57.00
21891;DHT22;11110;52.386;16.940;2023-09-19T07:08:07;30.50;56.90
21891;DHT22;11110;52.386;16.940;2023-09-19T07:10:39;30.50;56.90
21891;DHT22;11110;52.386;16.940;2023-09-19T07:13:08;30.50;56.80
21891;DHT22;11110;52.386;16.940;2023-09-19T07:15:38;30.40;57.00
21891;DHT22;11110;52.386;16.940;2023-09-19T07:18:15;30.40;57.20
21891;DHT22;11110;52.386;16.940;2023-09-19T07:20:44;30.50;57.20
21891;DHT22;11110;52.386;16.940;2023-09-19T07:23:17;30.60;56.90
21891;DHT22;11110;52.386;16.940;2023-09-19T07:25:46;30.60;57.00
21891;DHT22;11110;52.386;16.940;2023-09-19T07:28:16;30.50;57.10
21891;DHT22;11110;52.386;16.940;2023-09-19T07:30:45;30.60;56.80
21891;DHT22;11110;52.386;16.940;2023-09-19T07:33:14;30.60;56.70
21891;DHT22;11110;52.386;16.940;2023-09-19T07:35:45;30.60;56.60
21891;DHT22;11110;52.386;16.940;2023-09-19T07:38:14;30.60;56.50
21891;DHT22;11110;52.386;16.940;2023-09-19T07:40:44;30.50;56.30
21891;DHT22;11110;52.386;16.940;2023-09-19T07:43:12;30.60;56.30
21891;DHT22;11110;52.386;16.940;2023-09-19T07:45:41;30.60;56.40
21891;DHT22;11110;52.386;16.940;2023-09-19T07:48:10;30.60;56.20
21891;DHT22;11110;52.386;16.940;2023-09-19T07:51:04;30.60;56.10
21891;DHT22;11110;52.386;16.940;2023-09-19T07:53:33;30.60;56.20
21891;DHT22;11110;52.386;16.940;2023-09-19T07:56:04;30.80;56.00
21891;DHT22;11110;52.386;16.940;2023-09-19T07:58:33;30.70;56.00
21891;DHT22;11110;52.386;16.940;2023-09-19T08:01:04;30.70;55.70
21891;DHT22;11110;52.386;16.940;2023-09-19T08:03:32;30.80;55.40
21891;DHT22;11110;52.386;16.940;2023-09-19T08:06:02;30.80;55.40
21891;DHT22;11110;52.386;16.940;2023-09-19T08:08:31;31.00;55.10
21891;DHT22;11110;52.386;16.940;2023-09-19T08:11:00;30.90;55.20
21891;DHT22;11110;52.386;16.940;2023-09-19T08:13:28;30.90;55.00
21891;DHT22;11110;52.386;16.940;2023-09-19T08:15:58;31.00;54.90
21891;DHT22;11110;52.386;16.940;2023-09-19T08:18:27;31.10;54.60
21891;DHT22;11110;52.386;16.940;2023-09-19T08:20:57;31.10;54.60
21891;DHT22;11110;52.386;16.940;2023-09-19T08:23:29;31.20;54.40
21891;DHT22;11110;52.386;16.940;2023-09-19T08:25:59;31.30;54.20
21891;DHT22;11110;52.386;16.940;2023-09-19T08:28:34;31.30;54.00
21891;DHT22;11110;52.386;16.940;2023-09-19T08:31:03;31.30;53.90
21891;DHT22;11110;52.386;16.940;2023-09-19T08:33:33;31.30;53.80
21891;DHT22;11110;52.386;16.940;2023-09-19T08:36:03;31.40;53.80
21891;DHT22;11110;52.386;16.940;2023-09-19T08:38:34;31.30;52.60
21891;DHT22;11110;52.386;16.940;2023-09-19T08:41:06;31.40;53.10
21891;DHT22;11110;52.386;16.940;2023-09-19T08:43:35;31.40;53.20
21891;DHT22;11110;52.386;16.940;2023-09-19T08:46:10;31.40;52.40
21891;DHT22;11110;52.386;16.940;2023-09-19T08:48:45;31.40;51.90
21891;DHT22;11110;52.386;16.940;2023-09-19T08:51:18;31.30;51.70
21891;DHT22;11110;52.386;16.940;2023-09-19T08:53:58;31.40;51.10
21891;DHT22;11110;52.386;16.940;2023-09-19T08:56:29;31.40;51.50
21891;DHT22;11110;52.386;16.940;2023-09-19T08:59:01;31.40;51.30
21891;DHT22;11110;52.386;16.940;2023-09-19T09:01:31;31.40;50.00
21891;DHT22;11110;52.386;16.940;2023-09-19T09:04:01;31.30;49.90
21891;DHT22;11110;52.386;16.940;2023-09-19T09:06:31;31.30;50.20
21891;DHT22;11110;52.386;16.940;2023-09-19T09:09:02;31.30;50.10
21891;DHT22;11110;52.386;16.940;2023-09-19T09:11:33;31.30;50.30
21891;DHT22;11110;52.386;16.940;2023-09-19T09:14:01;31.20;50.00
21891;DHT22;11110;52.386;16.940;2023-09-19T09:16:30;31.20;50.40
21891;DHT22;11110;52.386;16.940;2023-09-19T09:18:59;31.30;50.60
21891;DHT22;11110;52.386;16.940;2023-09-19T09:21:29;31.40;50.10
21891;DHT22;11110;52.386;16.940;2023-09-19T09:24:27;31.40;50.00
21891;DHT22;11110;52.386;16.940;2023-09-19T09:26:57;31.50;49.60
21891;DHT22;11110;52.386;16.940;2023-09-19T09:29:44;31.50;49.10
21891;DHT22;11110;52.386;16.940;2023-09-19T09:32:18;31.50;48.70
21891;DHT22;11110;52.386;16.940;2023-09-19T09:34:49;31.50;48.40
21891;DHT22;11110;52.386;16.940;2023-09-19T09:37:18;31.30;48.70
21891;DHT22;11110;52.386;16.940;2023-09-19T09:39:52;31.30;48.40
21891;DHT22;11110;52.386;16.940;2023-09-19T09:42:30;31.30;48.30
21891;DHT22;11110;52.386;16.940;2023-09-19T09:45:14;31.30;47.30
21891;DHT22;11110;52.386;16.940;2023-09-19T09:47:47;31.30;47.60
21891;DHT22;11110;52.386;16.940;2023-09-19T09:50:26;31.30;47.00
21891;DHT22;11110;52.386;16.940;2023-09-19T09:53:07;31.20;47.00
21891;DHT22;11110;52.386;16.940;2023-09-19T09:56:02;31.20;46.90
21891;DHT22;11110;52.386;16.940;2023-09-19T09:58:34;31.20;47.00
21891;DHT22;11110;52.386;16.940;2023-09-19T10:01:04;31.10;47.40
21891;DHT22;11110;52.386;16.940;2023-09-19T10:03:38;31.20;46.90
21891;DHT22;11110;52.386;16.940;2023-09-19T10:06:10;31.10;47.10
21891;DHT22;11110;52.386;16.940;2023-09-19T10:08:58;31.10;47.40
21891;DHT22;11110;52.386;16.940;2023-09-19T10:11:44;31.10;46.40
21891;DHT22;11110;52.386;16.940;2023-09-19T10:14:15;31.10;46.30
21891;DHT22;11110;52.386;16.940;2023-09-19T10:16:46;31.10;46.10
21891;DHT22;11110;52.386;16.940;2023-09-19T10:19:20;31.30;46.00
21891;DHT22;11110;52.386;16.940;2023-09-19T10:21:54;31.10;45.80
21891;DHT22;11110;52.386;16.940;2023-09-19T10:24:26;31.20;46.10
21891;DHT22;11110;52.386;16.940;2023-09-19T10:26:56;31.30;46.30
21891;DHT22;11110;52.386;16.940;2023-09-19T10:29:28;31.40;45.60
21891;DHT22;11110;52.386;16.940;2023-09-19T10:31:58;31.50;45.60
21891;DHT22;11110;52.386;16.940;2023-09-19T10:34:29;31.50;45.20
21891;DHT22;11110;52.386;16.940;2023-09-19T10:37:00;31.60;45.40
21891;DHT22;11110;52.386;16.940;2023-09-19T10:39:33;31.70;45.00
21891;DHT22;11110;52.386;16.940;2023-09-19T10:42:06;31.60;45.00
21891;DHT22;11110;52.386;16.940;2023-09-19T10:44:38;31.80;45.30
21891;DHT22;11110;52.386;16.940;2023-09-19T10:47:07;31.80;45.10
21891;DHT22;11110;52.386;16.940;2023-09-19T10:49:43;31.90;45.40
21891;DHT22;11110;52.386;16.940;2023-09-19T10:52:14;32.00;44.80
21891;DHT22;11110;52.386;16.940;2023-09-19T10:54:48;32.00;44.40
21891;DHT22;11110;52.386;16.940;2023-09-19T10:57:21;32.00;44.40
21891;DHT22;11110;52.386;16.940;2023-09-19T11:00:04;32.10;43.00
21891;DHT22;11110;52.386;16.940;2023-09-19T11:03:17;32.20;42.00
21891;DHT22;11110;52.386;16.940;2023-09-19T11:06:01;32.20;41.20
21891;DHT22;11110;52.386;16.940;2023-09-19T11:09:01;32.20;40.60
21891;DHT22;11110;52.386;16.940;2023-09-19T11:11:50;32.20;40.30
21891;DHT22;11110;52.386;16.940;2023-09-19T11:14:41;32.20;39.40
21891;DHT22;11110;52.386;16.940;2023-09-19T11:17:31;32.20;39.30
21891;DHT22;11110;52.386;16.940;2023-09-19T11:20:19;32.20;39.70
21891;DHT22;11110;52.386;16.940;2023-09-19T11:23:18;32.20;39.90
21891;DHT22;11110;52.386;16.940;2023-09-19T11:25:50;32.10;39.90
21891;DHT22;11110;52.386;16.940;2023-09-19T11:28:33;32.00;40.00
21891;DHT22;11110;52.386;16.940;2023-09-19T11:34:47;32.20;40.30
21891;DHT22;11110;52.386;16.940;2023-09-19T11:40:46;32.20;39.80
21891;DHT22;11110;52.386;16.940;2023-09-19T11:43:32;32.20;40.00
21891;DHT22;11110;52.386;16.940;2023-09-19T11:46:05;32.30;40.20
21891;DHT22;11110;52.386;16.940;2023-09-19T11:48:39;32.20;40.30
21891;DHT22;11110;52.386;16.940;2023-09-19T11:51:19;32.30;40.60
21891;DHT22;11110;52.386;16.940;2023-09-19T11:53:50;32.30;40.70
21891;DHT22;11110;52.386;16.940;2023-09-19T11:56:20;32.30;40.90
21891;DHT22;11110;52.386;16.940;2023-09-19T11:58:49;32.40;40.50
21891;DHT22;11110;52.386;16.940;2023-09-19T12:01:22;32.40;39.60
21891;DHT22;11110;52.386;16.940;2023-09-19T12:03:56;32.50;40.00
21891;DHT22;11110;52.386;16.940;2023-09-19T12:06:29;32.50;39.90
21891;DHT22;11110;52.386;16.940;2023-09-19T12:08:57;32.50;39.00
21891;DHT22;11110;52.386;16.940;2023-09-19T12:11:29;32.60;38.20
21891;DHT22;11110;52.386;16.940;2023-09-19T12:14:02;32.70;38.20
21891;DHT22;11110;52.386;16.940;2023-09-19T12:16:32;32.70;37.90
21891;DHT22;11110;52.386;16.940;2023-09-19T12:19:19;32.70;37.80
21891;DHT22;11110;52.386;16.940;2023-09-19T12:21:58;32.80;38.30
21891;DHT22;11110;52.386;16.940;2023-09-19T12:24:32;32.80;38.40
21891;DHT22;11110;52.386;16.940;2023-09-19T12:27:05;32.80;38.40
21891;DHT22;11110;52.386;16.940;2023-09-19T12:29:43;33.00;38.00
21891;DHT22;11110;52.386;16.940;2023-09-19T12:32:12;33.00;38.30
21891;DHT22;11110;52.386;16.940;2023-09-19T12:34:51;32.90;38.40
21891;DHT22;11110;52.386;16.940;2023-09-19T12:37:22;33.10;38.40
21891;DHT22;11110;52.386;16.940;2023-09-19T12:40:04;33.10;38.30
21891;DHT22;11110;52.386;16.940;2023-09-19T12:42:42;33.20;38.30
21891;DHT22;11110;52.386;16.940;2023-09-19T12:45:12;33.20;38.40
21891;DHT22;11110;52.386;16.940;2023-09-19T12:51:03;33.20;38.00
21891;DHT22;11110;52.386;16.940;2023-09-19T12:53:38;33.40;38.10
21891;DHT22;11110;52.386;16.940;2023-09-19T12:56:11;33.40;38.10
21891;DHT22;11110;52.386;16.940;2023-09-19T12:58:52;33.40;37.50
21891;DHT22;11110;52.386;16.940;2023-09-19T13:01:22;33.50;37.50
21891;DHT22;11110;52.386;16.940;2023-09-19T13:04:11;33.50;37.90
21891;DHT22;11110;52.386;16.940;2023-09-19T13:06:42;33.50;37.60
21891;DHT22;11110;52.386;16.940;2023-09-19T13:09:12;33.40;37.70
21891;DHT22;11110;52.386;16.940;2023-09-19T13:11:42;33.50;38.40
21891;DHT22;11110;52.386;16.940;2023-09-19T13:14:16;33.50;38.20
21891;DHT22;11110;52.386;16.940;2023-09-19T13:16:59;33.60;38.00
21891;DHT22;11110;52.386;16.940;2023-09-19T13:19:36;33.70;38.60
21891;DHT22;11110;52.386;16.940;2023-09-19T13:22:05;33.70;38.10
21891;DHT22;11110;52.386;16.940;2023-09-19T13:24:40;33.80;38.00
21891;DHT22;11110;52.386;16.940;2023-09-19T13:27:08;34.00;37.30
21891;DHT22;11110;52.386;16.940;2023-09-19T13:29:37;34.10;37.10
21891;DHT22;11110;52.386;16.940;2023-09-19T13:32:06;34.10;37.10
21891;DHT22;11110;52.386;16.940;2023-09-19T13:34:35;34.10;37.00
21891;DHT22;11110;52.386;16.940;2023-09-19T13:37:03;34.20;36.80
21891;DHT22;11110;52.386;16.940;2023-09-19T13:39:33;34.30;36.90
21891;DHT22;11110;52.386;16.940;2023-09-19T13:42:04;34.30;36.70
21891;DHT22;11110;52.386;16.940;2023-09-19T13:44:33;34.30;36.40
21891;DHT22;11110;52.386;16.940;2023-09-19T13:47:01;34.30;36.60
21891;DHT22;11110;52.386;16.940;2023-09-19T13:49:34;34.20;36.90
21891;DHT22;11110;52.386;16.940;2023-09-19T13:52:03;34.30;37.10
21891;DHT22;11110;52.386;16.940;2023-09-19T13:54:32;34.20;37.30
21891;DHT22;11110;52.386;16.940;2023-09-19T13:57:01;34.30;37.60
21891;DHT22;11110;52.386;16.940;2023-09-19T13:59:31;34.30;37.70
21891;DHT22;11110;52.386;16.940;2023-09-19T14:01:59;34.40;38.00
21891;DHT22;11110;52.386;16.940;2023-09-19T14:04:28;34.50;37.80
21891;DHT22;11110;52.386;16.940;2023-09-19T14:06:58;34.50;37.20
21891;DHT22;11110;52.386;16.940;2023-09-19T14:09:28;34.50;37.80
21891;DHT22;11110;52.386;16.940;2023-09-19T14:11:56;34.50;36.20
21891;DHT22;11110;52.386;16.940;2023-09-19T14:14:24;34.40;36.10
21891;DHT22;11110;52.386;16.940;2023-09-19T14:16:54;34.40;35.90
21891;DHT22;11110;52.386;16.940;2023-09-19T14:19:23;34.30;36.40
21891;DHT22;11110;52.386;16.940;2023-09-19T14:21:51;34.30;36.40
21891;DHT22;11110;52.386;16.940;2023-09-19T14:24:22;34.20;36.50
21891;DHT22;11110;52.386;16.940;2023-09-19T14:26:51;34.20;36.30
21891;DHT22;11110;52.386;16.940;2023-09-19T14:29:19;34.20;36.70
21891;DHT22;11110;52.386;16.940;2023-09-19T14:31:48;34.10;36.40
21891;DHT22;11110;52.386;16.940;2023-09-19T14:34:20;34.20;36.60
21891;DHT22;11110;52.386;16.940;2023-09-19T14:36:49;34.10;36.20
21891;DHT22;11110;52.386;16.940;2023-09-19T14:39:17;34.20;36.00
21891;DHT22;11110;52.386;16.940;2023-09-19T14:41:46;34.10;35.60
21891;DHT22;11110;52.386;16.940;2023-09-19T14:44:15;34.10;35.70
21891;DHT22;11110;52.386;16.940;2023-09-19T14:46:44;34.10;35.60
21891;DHT22;11110;52.386;16.940;2023-09-19T14:49:13;34.00;35.50
21891;DHT22;11110;52.386;16.940;2023-09-19T14:51:45;34.00;35.40
21891;DHT22;11110;52.386;16.940;2023-09-19T14:54:15;34.00;35.60
21891;DHT22;11110;52.386;16.940;2023-09-19T14:56:44;33.80;35.20
21891;DHT22;11110;52.386;16.940;2023-09-19T14:59:12;33.80;35.50
21891;DHT22;11110;52.386;16.940;2023-09-19T15:01:43;33.80;34.80
21891;DHT22;11110;52.386;16.940;2023-09-19T15:04:12;33.70;34.60
21891;DHT22;11110;52.386;16.940;2023-09-19T15:06:40;33.60;34.60
21891;DHT22;11110;52.386;16.940;2023-09-19T15:09:10;33.50;34.80
21891;DHT22;11110;52.386;16.940;2023-09-19T15:11:38;33.50;34.80
21891;DHT22;11110;52.386;16.940;2023-09-19T15:14:07;33.50;34.60
21891;DHT22;11110;52.386;16.940;2023-09-19T15:16:35;33.50;34.30
21891;DHT22;11110;52.386;16.940;2023-09-19T15:19:04;33.50;34.20
21891;DHT22;11110;52.386;16.940;2023-09-19T15:21:34;33.50;34.30
21891;DHT22;11110;52.386;16.940;2023-09-19T15:24:05;33.40;34.20
21891;DHT22;11110;52.386;16.940;2023-09-19T15:26:37;33.40;34.20
21891;DHT22;11110;52.386;16.940;2023-09-19T15:29:07;33.30;34.00
21891;DHT22;11110;52.386;16.940;2023-09-19T15:31:38;33.20;35.20
21891;DHT22;11110;52.386;16.940;2023-09-19T15:34:07;33.20;34.70
21891;DHT22;11110;52.386;16.940;2023-09-19T15:36:37;33.30;34.60
21891;DHT22;11110;52.386;16.940;2023-09-19T15:39:07;33.20;34.00
21891;DHT22;11110;52.386;16.940;2023-09-19T15:41:41;33.10;33.90
21891;DHT22;11110;52.386;16.940;2023-09-19T15:44:14;33.10;34.00
21891;DHT22;11110;52.386;16.940;2023-09-19T15:46:43;33.10;34.20
21891;DHT22;11110;52.386;16.940;2023-09-19T15:49:12;33.00;34.20
21891;DHT22;11110;52.386;16.940;2023-09-19T15:51:40;33.00;34.30
21891;DHT22;11110;52.386;16.940;2023-09-19T15:54:12;33.00;34.50
21891;DHT22;11110;52.386;16.940;2023-09-19T15:56:44;32.90;34.60